sensor_id;sensor_type;location;lat;lon;timestamp;P1;durP1;ratioP1;P2;durP2;ratioP2
3297;SDS011;1661;53.572;10.174;2023-04-29T00:02:18;10.63;;;9.40;;
3297;SDS011;1661;53.572;10.174;2023-04-29T00:04:46;11.37;;;10.27;;
3297;SDS011;1661;53.572;10.174;2023-04-29T00:07:13;13.53;;;12.10;;
3297;SDS011;1661;53.572;10.174;2023-04-29T00:09:40;9.60;;;8.80;;
3297;SDS011;1661;53.572;10.174;2023-04-29T00:12:10;19.27;;;9.90;;
3297;SDS011;1661;53.572;10.174;2023-04-29T00:14:37;11.67;;;9.70;;
3297;SDS011;1661;53.572;10.174;2023-04-29T00:17:13;10.23;;;8.63;;
3297;SDS011;1661;53.572;10.174;2023-04-29T00:19:40;18.23;;;12.53;;
3297;SDS011;1661;53.572;10.174;2023-04-29T00:22:08;10.50;;;8.27;;
3297;SDS011;1661;53.572;10.174;2023-04-29T00:24:35;14.73;;;11.10;;
3297;SDS011;1661;53.572;10.174;2023-04-29T00:27:02;12.87;;;10.30;;
3297;SDS011;1661;53.572;10.174;2023-04-29T00:29:30;13.60;;;12.20;;
3297;SDS011;1661;53.572;10.174;2023-04-29T00:31:57;13.17;;;10.60;;
3297;SDS011;1661;53.572;10.174;2023-04-29T00:34:24;12.30;;;11.00;;
3297;SDS011;1661;53.572;10.174;2023-04-29T00:36:51;18.27;;;11.00;;
3297;SDS011;1661;53.572;10.174;2023-04-29T00:39:19;12.10;;;10.70;;
3297;SDS011;1661;53.572;10.174;2023-04-29T00:41:45;10.27;;;9.27;;
3297;SDS011;1661;53.572;10.174;2023-04-29T00:44:13;15.07;;;12.63;;
3297;SDS011;1661;53.572;10.174;2023-04-29T00:46:39;13.10;;;11.37;;
3297;SDS011;1661;53.572;10.174;2023-04-29T00:49:06;11.87;;;10.67;;
3297;SDS011;1661;53.572;10.174;2023-04-29T00:51:35;18.07;;;12.17;;
3297;SDS011;1661;53.572;10.174;2023-04-29T00:54:05;16.63;;;11.63;;
3297;SDS011;1661;53.572;10.174;2023-04-29T00:56:36;18.03;;;11.07;;
3297;SDS011;1661;53.572;10.174;2023-04-29T00:59:08;12.63;;;10.70;;
3297;SDS011;1661;53.572;10.174;2023-04-29T01:01:36;17.93;;;12.77;;
3297;SDS011;1661;53.572;10.174;2023-04-29T01:04:04;17.23;;;14.00;;
3297;SDS011;1661;53.572;10.174;2023-04-29T01:06:36;19.40;;;14.80;;
3297;SDS011;1661;53.572;10.174;2023-04-29T01:12:13;22.00;;;16.40;;
3297;SDS011;1661;53.572;10.174;2023-04-29T01:14:47;23.90;;;17.30;;
3297;SDS011;1661;53.572;10.174;2023-04-29T01:17:20;14.27;;;11.30;;
3297;SDS011;1661;53.572;10.174;2023-04-29T01:19:51;19.10;;;15.80;;
3297;SDS011;1661;53.572;10.174;2023-04-29T01:22:20;20.10;;;14.30;;
3297;SDS011;1661;53.572;10.174;2023-04-29T01:24:51;19.97;;;14.00;;
3297;SDS011;1661;53.572;10.174;2023-04-29T01:27:21;19.17;;;13.83;;
3297;SDS011;1661;53.572;10.174;2023-04-29T01:29:55;20.67;;;16.47;;
3297;SDS011;1661;53.572;10.174;2023-04-29T01:35:19;26.67;;;17.77;;
3297;SDS011;1661;53.572;10.174;2023-04-29T01:38:00;30.47;;;15.10;;
3297;SDS011;1661;53.572;10.174;2023-04-29T01:40:37;20.53;;;17.97;;
3297;SDS011;1661;53.572;10.174;2023-04-29T01:43:16;28.20;;;20.43;;
3297;SDS011;1661;53.572;10.174;2023-04-29T01:45:46;21.13;;;14.40;;
3297;SDS011;1661;53.572;10.174;2023-04-29T01:48:16;24.80;;;18.70;;
3297;SDS011;1661;53.572;10.174;2023-04-29T01:50:47;19.77;;;15.30;;
3297;SDS011;1661;53.572;10.174;2023-04-29T01:53:13;28.37;;;21.10;;
3297;SDS011;1661;53.572;10.174;2023-04-29T01:55:41;23.17;;;18.50;;
3297;SDS011;1661;53.572;10.174;2023-04-29T01:58:08;22.97;;;18.90;;
3297;SDS011;1661;53.572;10.174;2023-04-29T02:00:35;19.57;;;17.23;;
3297;SDS011;1661;53.572;10.174;2023-04-29T02:03:02;26.17;;;18.60;;
3297;SDS011;1661;53.572;10.174;2023-04-29T02:05:29;24.97;;;19.90;;
3297;SDS011;1661;53.572;10.174;2023-04-29T02:07:58;22.57;;;17.37;;
3297;SDS011;1661;53.572;10.174;2023-04-29T02:10:24;21.03;;;17.20;;
3297;SDS011;1661;53.572;10.174;2023-04-29T02:12:53;20.90;;;15.40;;
3297;SDS011;1661;53.572;10.174;2023-04-29T02:15:20;26.37;;;20.70;;
3297;SDS011;1661;53.572;10.174;2023-04-29T02:17:46;22.00;;;17.97;;
3297;SDS011;1661;53.572;10.174;2023-04-29T02:20:13;18.60;;;14.40;;
3297;SDS011;1661;53.572;10.174;2023-04-29T02:22:43;25.13;;;20.00;;
3297;SDS011;1661;53.572;10.174;2023-04-29T02:25:10;18.20;;;16.27;;
3297;SDS011;1661;53.572;10.174;2023-04-29T02:27:37;25.70;;;19.50;;
3297;SDS011;1661;53.572;10.174;2023-04-29T02:30:06;27.03;;;19.07;;
3297;SDS011;1661;53.572;10.174;2023-04-29T02:32:33;24.30;;;20.70;;
3297;SDS011;1661;53.572;10.174;2023-04-29T02:35:00;22.47;;;18.13;;
3297;SDS011;1661;53.572;10.174;2023-04-29T02:37:29;23.60;;;18.17;;
3297;SDS011;1661;53.572;10.174;2023-04-29T02:39:56;26.00;;;19.10;;
3297;SDS011;1661;53.572;10.174;2023-04-29T02:42:22;27.87;;;19.90;;
3297;SDS011;1661;53.572;10.174;2023-04-29T02:44:49;37.00;;;21.40;;
3297;SDS011;1661;53.572;10.174;2023-04-29T02:47:17;19.13;;;15.30;;
3297;SDS011;1661;53.572;10.174;2023-04-29T02:49:44;22.93;;;18.47;;
3297;SDS011;1661;53.572;10.174;2023-04-29T02:52:11;17.50;;;15.03;;
3297;SDS011;1661;53.572;10.174;2023-04-29T02:54:41;39.17;;;20.77;;
3297;SDS011;1661;53.572;10.174;2023-04-29T02:57:08;21.77;;;16.17;;
3297;SDS011;1661;53.572;10.174;2023-04-29T02:59:37;25.50;;;20.50;;
3297;SDS011;1661;53.572;10.174;2023-04-29T03:02:04;25.70;;;18.23;;
3297;SDS011;1661;53.572;10.174;2023-04-29T03:04:32;30.40;;;20.80;;
3297;SDS011;1661;53.572;10.174;2023-04-29T03:06:59;20.47;;;16.10;;
3297;SDS011;1661;53.572;10.174;2023-04-29T03:09:28;29.60;;;22.23;;
3297;SDS011;1661;53.572;10.174;2023-04-29T03:11:55;19.50;;;15.73;;
3297;SDS011;1661;53.572;10.174;2023-04-29T03:14:25;21.80;;;14.90;;
3297;SDS011;1661;53.572;10.174;2023-04-29T03:16:52;18.23;;;15.57;;
3297;SDS011;1661;53.572;10.174;2023-04-29T03:19:20;28.87;;;22.03;;
3297;SDS011;1661;53.572;10.174;2023-04-29T03:21:48;28.97;;;21.40;;
3297;SDS011;1661;53.572;10.174;2023-04-29T03:24:15;22.10;;;17.17;;
3297;SDS011;1661;53.572;10.174;2023-04-29T03:26:42;23.90;;;16.77;;
3297;SDS011;1661;53.572;10.174;2023-04-29T03:29:09;30.23;;;21.27;;
3297;SDS011;1661;53.572;10.174;2023-04-29T03:31:42;31.20;;;21.03;;
3297;SDS011;1661;53.572;10.174;2023-04-29T03:34:09;34.50;;;22.30;;
3297;SDS011;1661;53.572;10.174;2023-04-29T03:36:35;19.50;;;16.23;;
3297;SDS011;1661;53.572;10.174;2023-04-29T03:39:04;35.00;;;22.97;;
3297;SDS011;1661;53.572;10.174;2023-04-29T03:41:30;24.90;;;16.70;;
3297;SDS011;1661;53.572;10.174;2023-04-29T03:43:57;29.07;;;21.70;;
3297;SDS011;1661;53.572;10.174;2023-04-29T03:46:25;27.97;;;21.90;;
3297;SDS011;1661;53.572;10.174;2023-04-29T03:48:54;30.43;;;22.13;;
3297;SDS011;1661;53.572;10.174;2023-04-29T03:51:21;32.43;;;24.23;;
3297;SDS011;1661;53.572;10.174;2023-04-29T03:53:49;20.50;;;14.97;;
3297;SDS011;1661;53.572;10.174;2023-04-29T03:56:18;32.70;;;22.87;;
3297;SDS011;1661;53.572;10.174;2023-04-29T03:58:47;23.73;;;17.77;;
3297;SDS011;1661;53.572;10.174;2023-04-29T04:01:14;23.30;;;17.13;;
3297;SDS011;1661;53.572;10.174;2023-04-29T04:03:41;29.37;;;20.90;;
3297;SDS011;1661;53.572;10.174;2023-04-29T04:06:08;32.03;;;20.20;;
3297;SDS011;1661;53.572;10.174;2023-04-29T04:08:35;27.93;;;21.57;;
3297;SDS011;1661;53.572;10.174;2023-04-29T04:11:01;23.23;;;16.63;;
3297;SDS011;1661;53.572;10.174;2023-04-29T04:13:30;34.50;;;19.70;;
3297;SDS011;1661;53.572;10.174;2023-04-29T04:15:57;29.57;;;21.47;;
3297;SDS011;1661;53.572;10.174;2023-04-29T04:18:23;17.13;;;14.80;;
3297;SDS011;1661;53.572;10.174;2023-04-29T04:20:50;25.90;;;17.70;;
3297;SDS011;1661;53.572;10.174;2023-04-29T04:23:17;23.03;;;17.10;;
3297;SDS011;1661;53.572;10.174;2023-04-29T04:25:44;20.43;;;18.10;;
3297;SDS011;1661;53.572;10.174;2023-04-29T04:28:11;31.87;;;22.60;;
3297;SDS011;1661;53.572;10.174;2023-04-29T04:30:39;39.27;;;22.30;;
3297;SDS011;1661;53.572;10.174;2023-04-29T04:33:06;30.63;;;19.37;;
3297;SDS011;1661;53.572;10.174;2023-04-29T04:35:34;30.23;;;22.70;;
3297;SDS011;1661;53.572;10.174;2023-04-29T04:38:01;33.50;;;21.57;;
3297;SDS011;1661;53.572;10.174;2023-04-29T04:40:28;31.90;;;20.50;;
3297;SDS011;1661;53.572;10.174;2023-04-29T04:42:55;24.87;;;17.80;;
3297;SDS011;1661;53.572;10.174;2023-04-29T04:45:22;26.00;;;18.87;;
3297;SDS011;1661;53.572;10.174;2023-04-29T04:47:50;26.93;;;17.40;;
3297;SDS011;1661;53.572;10.174;2023-04-29T04:50:20;33.33;;;25.10;;
3297;SDS011;1661;53.572;10.174;2023-04-29T04:52:46;24.50;;;17.20;;
3297;SDS011;1661;53.572;10.174;2023-04-29T04:55:13;21.13;;;17.93;;
3297;SDS011;1661;53.572;10.174;2023-04-29T04:57:43;22.17;;;15.63;;
3297;SDS011;1661;53.572;10.174;2023-04-29T05:00:10;31.10;;;21.80;;
3297;SDS011;1661;53.572;10.174;2023-04-29T05:02:37;41.00;;;23.67;;
3297;SDS011;1661;53.572;10.174;2023-04-29T05:05:08;30.70;;;19.13;;
3297;SDS011;1661;53.572;10.174;2023-04-29T05:07:35;22.30;;;15.80;;
3297;SDS011;1661;53.572;10.174;2023-04-29T05:10:02;26.57;;;17.97;;
3297;SDS011;1661;53.572;10.174;2023-04-29T05:12:30;31.83;;;20.00;;
3297;SDS011;1661;53.572;10.174;2023-04-29T05:14:59;22.97;;;19.20;;
3297;SDS011;1661;53.572;10.174;2023-04-29T05:17:26;19.93;;;14.37;;
3297;SDS011;1661;53.572;10.174;2023-04-29T05:19:53;25.70;;;16.70;;
3297;SDS011;1661;53.572;10.174;2023-04-29T05:22:21;27.37;;;19.00;;
3297;SDS011;1661;53.572;10.174;2023-04-29T05:24:48;28.73;;;17.20;;
3297;SDS011;1661;53.572;10.174;2023-04-29T05:27:16;27.90;;;18.60;;
3297;SDS011;1661;53.572;10.174;2023-04-29T05:29:43;22.60;;;16.03;;
3297;SDS011;1661;53.572;10.174;2023-04-29T05:32:10;28.27;;;19.23;;
3297;SDS011;1661;53.572;10.174;2023-04-29T05:34:37;22.87;;;18.77;;
3297;SDS011;1661;53.572;10.174;2023-04-29T05:37:04;21.23;;;15.17;;
3297;SDS011;1661;53.572;10.174;2023-04-29T05:39:35;23.90;;;18.30;;
3297;SDS011;1661;53.572;10.174;2023-04-29T05:42:02;17.43;;;15.43;;
3297;SDS011;1661;53.572;10.174;2023-04-29T05:44:28;23.07;;;17.87;;
3297;SDS011;1661;53.572;10.174;2023-04-29T05:46:57;15.63;;;11.97;;
3297;SDS011;1661;53.572;10.174;2023-04-29T05:49:24;21.20;;;15.50;;
3297;SDS011;1661;53.572;10.174;2023-04-29T05:51:51;28.50;;;15.60;;
3297;SDS011;1661;53.572;10.174;2023-04-29T05:54:18;25.13;;;16.73;;
3297;SDS011;1661;53.572;10.174;2023-04-29T05:56:46;20.50;;;14.57;;
3297;SDS011;1661;53.572;10.174;2023-04-29T05:59:13;26.50;;;15.77;;
3297;SDS011;1661;53.572;10.174;2023-04-29T06:01:42;24.00;;;16.70;;
3297;SDS011;1661;53.572;10.174;2023-04-29T06:04:09;23.37;;;16.30;;
3297;SDS011;1661;53.572;10.174;2023-04-29T06:06:36;23.63;;;15.17;;
3297;SDS011;1661;53.572;10.174;2023-04-29T06:09:03;32.93;;;16.23;;
3297;SDS011;1661;53.572;10.174;2023-04-29T06:11:30;15.13;;;11.50;;
3297;SDS011;1661;53.572;10.174;2023-04-29T06:13:58;25.90;;;14.57;;
3297;SDS011;1661;53.572;10.174;2023-04-29T06:16:25;18.60;;;12.10;;
3297;SDS011;1661;53.572;10.174;2023-04-29T06:18:52;21.07;;;14.10;;
3297;SDS011;1661;53.572;10.174;2023-04-29T06:21:21;18.73;;;12.83;;
3297;SDS011;1661;53.572;10.174;2023-04-29T06:23:50;22.80;;;12.97;;
3297;SDS011;1661;53.572;10.174;2023-04-29T06:26:17;19.00;;;11.90;;
3297;SDS011;1661;53.572;10.174;2023-04-29T06:28:45;18.27;;;13.37;;
3297;SDS011;1661;53.572;10.174;2023-04-29T06:31:13;16.97;;;12.93;;
3297;SDS011;1661;53.572;10.174;2023-04-29T06:33:40;15.37;;;10.57;;
3297;SDS011;1661;53.572;10.174;2023-04-29T06:36:07;16.70;;;11.70;;
3297;SDS011;1661;53.572;10.174;2023-04-29T06:38:34;17.77;;;10.63;;
3297;SDS011;1661;53.572;10.174;2023-04-29T06:41:00;20.03;;;11.20;;
3297;SDS011;1661;53.572;10.174;2023-04-29T06:43:28;15.33;;;11.50;;
3297;SDS011;1661;53.572;10.174;2023-04-29T06:45:57;16.00;;;11.27;;
3297;SDS011;1661;53.572;10.174;2023-04-29T06:48:25;9.80;;;8.80;;
3297;SDS011;1661;53.572;10.174;2023-04-29T06:50:53;17.07;;;10.90;;
3297;SDS011;1661;53.572;10.174;2023-04-29T06:53:20;20.50;;;11.47;;
3297;SDS011;1661;53.572;10.174;2023-04-29T06:55:48;20.63;;;11.37;;
3297;SDS011;1661;53.572;10.174;2023-04-29T06:58:15;17.60;;;11.27;;
3297;SDS011;1661;53.572;10.174;2023-04-29T07:00:43;13.20;;;10.30;;
3297;SDS011;1661;53.572;10.174;2023-04-29T07:03:13;11.87;;;8.83;;
3297;SDS011;1661;53.572;10.174;2023-04-29T07:05:43;16.53;;;11.47;;
3297;SDS011;1661;53.572;10.174;2023-04-29T07:08:10;15.67;;;10.73;;
3297;SDS011;1661;53.572;10.174;2023-04-29T07:10:38;19.47;;;11.63;;
3297;SDS011;1661;53.572;10.174;2023-04-29T07:13:06;19.13;;;10.57;;
3297;SDS011;1661;53.572;10.174;2023-04-29T07:15:39;9.73;;;8.73;;
3297;SDS011;1661;53.572;10.174;2023-04-29T07:18:06;12.80;;;10.40;;
3297;SDS011;1661;53.572;10.174;2023-04-29T07:20:35;11.23;;;7.40;;
3297;SDS011;1661;53.572;10.174;2023-04-29T07:23:03;13.37;;;10.43;;
3297;SDS011;1661;53.572;10.174;2023-04-29T07:25:29;17.30;;;11.63;;
3297;SDS011;1661;53.572;10.174;2023-04-29T07:27:57;17.97;;;9.27;;
3297;SDS011;1661;53.572;10.174;2023-04-29T07:30:23;8.80;;;7.93;;
3297;SDS011;1661;53.572;10.174;2023-04-29T07:32:50;12.40;;;9.43;;
3297;SDS011;1661;53.572;10.174;2023-04-29T07:35:17;9.67;;;7.50;;
3297;SDS011;1661;53.572;10.174;2023-04-29T07:37:46;9.53;;;8.37;;
3297;SDS011;1661;53.572;10.174;2023-04-29T07:40:14;9.07;;;7.93;;
3297;SDS011;1661;53.572;10.174;2023-04-29T07:42:47;12.90;;;9.53;;
3297;SDS011;1661;53.572;10.174;2023-04-29T07:45:14;11.90;;;8.97;;
3297;SDS011;1661;53.572;10.174;2023-04-29T07:47:40;16.60;;;10.40;;
3297;SDS011;1661;53.572;10.174;2023-04-29T07:50:10;10.90;;;9.40;;
3297;SDS011;1661;53.572;10.174;2023-04-29T07:52:37;12.63;;;8.67;;
3297;SDS011;1661;53.572;10.174;2023-04-29T07:55:07;12.80;;;9.57;;
3297;SDS011;1661;53.572;10.174;2023-04-29T07:57:36;10.27;;;8.53;;
3297;SDS011;1661;53.572;10.174;2023-04-29T08:00:03;10.57;;;8.87;;
3297;SDS011;1661;53.572;10.174;2023-04-29T08:02:31;9.90;;;8.60;;
3297;SDS011;1661;53.572;10.174;2023-04-29T08:04:58;8.80;;;6.80;;
3297;SDS011;1661;53.572;10.174;2023-04-29T08:07:26;19.53;;;9.97;;
3297;SDS011;1661;53.572;10.174;2023-04-29T08:09:53;10.77;;;8.10;;
3297;SDS011;1661;53.572;10.174;2023-04-29T08:12:19;15.30;;;10.27;;
3297;SDS011;1661;53.572;10.174;2023-04-29T08:14:47;13.83;;;7.67;;
3297;SDS011;1661;53.572;10.174;2023-04-29T08:17:14;11.90;;;9.23;;
3297;SDS011;1661;53.572;10.174;2023-04-29T08:19:41;8.97;;;6.80;;
3297;SDS011;1661;53.572;10.174;2023-04-29T08:22:08;15.10;;;9.63;;
3297;SDS011;1661;53.572;10.174;2023-04-29T08:24:36;14.00;;;10.43;;
3297;SDS011;1661;53.572;10.174;2023-04-29T08:27:03;12.27;;;10.37;;
3297;SDS011;1661;53.572;10.174;2023-04-29T08:29:30;12.83;;;9.97;;
3297;SDS011;1661;53.572;10.174;2023-04-29T08:31:59;10.00;;;8.37;;
3297;SDS011;1661;53.572;10.174;2023-04-29T08:34:26;14.70;;;9.60;;
3297;SDS011;1661;53.572;10.174;2023-04-29T08:36:56;13.47;;;9.77;;
3297;SDS011;1661;53.572;10.174;2023-04-29T08:39:23;11.43;;;8.07;;
3297;SDS011;1661;53.572;10.174;2023-04-29T08:41:50;16.63;;;8.40;;
3297;SDS011;1661;53.572;10.174;2023-04-29T08:44:20;12.90;;;7.30;;
3297;SDS011;1661;53.572;10.174;2023-04-29T08:46:47;9.20;;;5.97;;
3297;SDS011;1661;53.572;10.174;2023-04-29T08:49:16;11.33;;;7.90;;
3297;SDS011;1661;53.572;10.174;2023-04-29T08:51:43;12.10;;;8.10;;
3297;SDS011;1661;53.572;10.174;2023-04-29T08:54:10;17.23;;;9.27;;
3297;SDS011;1661;53.572;10.174;2023-04-29T08:56:37;15.33;;;8.67;;
3297;SDS011;1661;53.572;10.174;2023-04-29T08:59:04;13.97;;;9.70;;
3297;SDS011;1661;53.572;10.174;2023-04-29T09:01:34;9.70;;;8.70;;
3297;SDS011;1661;53.572;10.174;2023-04-29T09:04:07;11.77;;;8.40;;
3297;SDS011;1661;53.572;10.174;2023-04-29T09:06:39;11.80;;;8.37;;
3297;SDS011;1661;53.572;10.174;2023-04-29T09:09:06;12.70;;;8.83;;
3297;SDS011;1661;53.572;10.174;2023-04-29T09:11:34;8.37;;;6.83;;
3297;SDS011;1661;53.572;10.174;2023-04-29T09:14:02;13.20;;;8.30;;
3297;SDS011;1661;53.572;10.174;2023-04-29T09:16:29;10.03;;;6.73;;
3297;SDS011;1661;53.572;10.174;2023-04-29T09:18:56;10.23;;;7.63;;
3297;SDS011;1661;53.572;10.174;2023-04-29T09:21:24;15.10;;;7.97;;
3297;SDS011;1661;53.572;10.174;2023-04-29T09:23:53;8.50;;;7.60;;
3297;SDS011;1661;53.572;10.174;2023-04-29T09:26:21;10.00;;;8.13;;
3297;SDS011;1661;53.572;10.174;2023-04-29T09:29:04;12.43;;;9.10;;
3297;SDS011;1661;53.572;10.174;2023-04-29T09:31:32;6.63;;;5.57;;
3297;SDS011;1661;53.572;10.174;2023-04-29T09:33:59;11.37;;;6.33;;
3297;SDS011;1661;53.572;10.174;2023-04-29T09:36:34;10.07;;;7.20;;
3297;SDS011;1661;53.572;10.174;2023-04-29T09:39:03;8.60;;;7.80;;
3297;SDS011;1661;53.572;10.174;2023-04-29T09:41:35;10.57;;;8.83;;
3297;SDS011;1661;53.572;10.174;2023-04-29T09:44:03;8.53;;;7.43;;
3297;SDS011;1661;53.572;10.174;2023-04-29T09:46:31;10.57;;;8.40;;
3297;SDS011;1661;53.572;10.174;2023-04-29T09:48:58;14.70;;;10.63;;
3297;SDS011;1661;53.572;10.174;2023-04-29T09:51:25;13.37;;;10.43;;
3297;SDS011;1661;53.572;10.174;2023-04-29T09:53:52;8.43;;;7.60;;
3297;SDS011;1661;53.572;10.174;2023-04-29T09:56:21;12.03;;;9.37;;
3297;SDS011;1661;53.572;10.174;2023-04-29T09:58:48;13.03;;;9.20;;
3297;SDS011;1661;53.572;10.174;2023-04-29T10:01:15;8.47;;;7.60;;
3297;SDS011;1661;53.572;10.174;2023-04-29T10:03:44;17.13;;;7.73;;
3297;SDS011;1661;53.572;10.174;2023-04-29T10:06:14;10.70;;;9.50;;
3297;SDS011;1661;53.572;10.174;2023-04-29T10:08:43;14.43;;;9.67;;
3297;SDS011;1661;53.572;10.174;2023-04-29T10:11:11;9.67;;;7.93;;
3297;SDS011;1661;53.572;10.174;2023-04-29T10:13:41;10.33;;;9.33;;
3297;SDS011;1661;53.572;10.174;2023-04-29T10:16:12;17.57;;;10.23;;
3297;SDS011;1661;53.572;10.174;2023-04-29T10:18:48;15.77;;;10.50;;
3297;SDS011;1661;53.572;10.174;2023-04-29T10:21:17;14.10;;;8.23;;
3297;SDS011;1661;53.572;10.174;2023-04-29T10:23:49;10.07;;;9.20;;
3297;SDS011;1661;53.572;10.174;2023-04-29T10:26:17;10.30;;;7.93;;
3297;SDS011;1661;53.572;10.174;2023-04-29T10:28:47;11.40;;;8.43;;
3297;SDS011;1661;53.572;10.174;2023-04-29T10:31:16;8.30;;;7.50;;
3297;SDS011;1661;53.572;10.174;2023-04-29T10:33:46;9.33;;;7.80;;
3297;SDS011;1661;53.572;10.174;2023-04-29T10:36:20;11.33;;;8.80;;
3297;SDS011;1661;53.572;10.174;2023-04-29T10:38:49;12.30;;;8.40;;
3297;SDS011;1661;53.572;10.174;2023-04-29T10:41:19;8.43;;;7.03;;
3297;SDS011;1661;53.572;10.174;2023-04-29T10:43:51;10.47;;;8.80;;
3297;SDS011;1661;53.572;10.174;2023-04-29T10:46:19;7.93;;;7.13;;
3297;SDS011;1661;53.572;10.174;2023-04-29T10:48:56;9.73;;;7.03;;
3297;SDS011;1661;53.572;10.174;2023-04-29T10:51:29;9.60;;;7.20;;
3297;SDS011;1661;53.572;10.174;2023-04-29T10:53:57;11.27;;;7.90;;
3297;SDS011;1661;53.572;10.174;2023-04-29T10:56:38;8.63;;;6.37;;
3297;SDS011;1661;53.572;10.174;2023-04-29T10:59:11;7.27;;;6.50;;
3297;SDS011;1661;53.572;10.174;2023-04-29T11:01:40;19.80;;;7.70;;
3297;SDS011;1661;53.572;10.174;2023-04-29T11:04:08;10.30;;;6.43;;
3297;SDS011;1661;53.572;10.174;2023-04-29T11:06:40;8.33;;;7.50;;
3297;SDS011;1661;53.572;10.174;2023-04-29T11:09:09;7.47;;;5.50;;
3297;SDS011;1661;53.572;10.174;2023-04-29T11:11:45;10.07;;;7.33;;
3297;SDS011;1661;53.572;10.174;2023-04-29T11:14:20;11.70;;;8.27;;
3297;SDS011;1661;53.572;10.174;2023-04-29T11:16:52;13.80;;;8.00;;
3297;SDS011;1661;53.572;10.174;2023-04-29T11:19:23;14.03;;;9.30;;
3297;SDS011;1661;53.572;10.174;2023-04-29T11:22:02;10.20;;;8.73;;
3297;SDS011;1661;53.572;10.174;2023-04-29T11:24:47;11.00;;;7.30;;
3297;SDS011;1661;53.572;10.174;2023-04-29T11:27:15;9.13;;;7.90;;
3297;SDS011;1661;53.572;10.174;2023-04-29T11:29:45;15.10;;;8.80;;
3297;SDS011;1661;53.572;10.174;2023-04-29T11:32:12;11.83;;;6.70;;
3297;SDS011;1661;53.572;10.174;2023-04-29T11:34:39;10.63;;;7.67;;
3297;SDS011;1661;53.572;10.174;2023-04-29T11:37:06;11.53;;;10.33;;
3297;SDS011;1661;53.572;10.174;2023-04-29T11:39:33;9.23;;;7.80;;
3297;SDS011;1661;53.572;10.174;2023-04-29T11:42:04;15.43;;;10.30;;
3297;SDS011;1661;53.572;10.174;2023-04-29T11:44:32;7.40;;;6.77;;
3297;SDS011;1661;53.572;10.174;2023-04-29T11:47:03;9.70;;;6.47;;
3297;SDS011;1661;53.572;10.174;2023-04-29T11:49:31;12.23;;;9.40;;
3297;SDS011;1661;53.572;10.174;2023-04-29T11:51:58;9.87;;;8.70;;
3297;SDS011;1661;53.572;10.174;2023-04-29T11:54:26;10.97;;;9.00;;
3297;SDS011;1661;53.572;10.174;2023-04-29T11:56:53;10.07;;;8.97;;
3297;SDS011;1661;53.572;10.174;2023-04-29T11:59:20;5.23;;;4.80;;
3297;SDS011;1661;53.572;10.174;2023-04-29T12:01:47;10.27;;;8.40;;
3297;SDS011;1661;53.572;10.174;2023-04-29T12:04:16;7.23;;;6.57;;
3297;SDS011;1661;53.572;10.174;2023-04-29T12:06:43;11.93;;;7.80;;
3297;SDS011;1661;53.572;10.174;2023-04-29T12:09:10;8.47;;;5.63;;
3297;SDS011;1661;53.572;10.174;2023-04-29T12:11:37;12.00;;;9.37;;
3297;SDS011;1661;53.572;10.174;2023-04-29T12:14:05;10.13;;;8.20;;
3297;SDS011;1661;53.572;10.174;2023-04-29T12:16:32;11.50;;;9.50;;
3297;SDS011;1661;53.572;10.174;2023-04-29T12:18:59;8.37;;;5.60;;
3297;SDS011;1661;53.572;10.174;2023-04-29T12:21:28;12.03;;;9.20;;
3297;SDS011;1661;53.572;10.174;2023-04-29T12:23:57;12.83;;;9.00;;
3297;SDS011;1661;53.572;10.174;2023-04-29T12:26:26;9.63;;;8.73;;
3297;SDS011;1661;53.572;10.174;2023-04-29T12:28:53;5.50;;;5.10;;
3297;SDS011;1661;53.572;10.174;2023-04-29T12:31:22;8.50;;;6.90;;
3297;SDS011;1661;53.572;10.174;2023-04-29T12:33:52;9.73;;;7.40;;
3297;SDS011;1661;53.572;10.174;2023-04-29T12:36:19;7.03;;;6.20;;
3297;SDS011;1661;53.572;10.174;2023-04-29T12:38:47;5.50;;;4.90;;
3297;SDS011;1661;53.572;10.174;2023-04-29T12:41:14;17.13;;;7.47;;
3297;SDS011;1661;53.572;10.174;2023-04-29T12:43:41;11.53;;;5.77;;
3297;SDS011;1661;53.572;10.174;2023-04-29T12:46:09;9.93;;;7.57;;
3297;SDS011;1661;53.572;10.174;2023-04-29T12:48:37;10.33;;;7.40;;
3297;SDS011;1661;53.572;10.174;2023-04-29T12:51:07;8.80;;;5.50;;
3297;SDS011;1661;53.572;10.174;2023-04-29T12:53:35;15.33;;;6.97;;
3297;SDS011;1661;53.572;10.174;2023-04-29T12:56:04;12.17;;;6.90;;
3297;SDS011;1661;53.572;10.174;2023-04-29T12:58:32;8.33;;;5.87;;
3297;SDS011;1661;53.572;10.174;2023-04-29T13:00:59;4.67;;;4.27;;
3297;SDS011;1661;53.572;10.174;2023-04-29T13:03:26;8.47;;;5.23;;
3297;SDS011;1661;53.572;10.174;2023-04-29T13:05:52;6.30;;;5.77;;
3297;SDS011;1661;53.572;10.174;2023-04-29T13:08:19;8.60;;;4.60;;
3297;SDS011;1661;53.572;10.174;2023-04-29T13:13:16;9.50;;;5.37;;
3297;SDS011;1661;53.572;10.174;2023-04-29T13:15:42;4.97;;;4.57;;
3297;SDS011;1661;53.572;10.174;2023-04-29T13:18:09;7.27;;;4.50;;
3297;SDS011;1661;53.572;10.174;2023-04-29T13:20:36;5.00;;;4.70;;
3297;SDS011;1661;53.572;10.174;2023-04-29T13:23:03;5.30;;;4.80;;
3297;SDS011;1661;53.572;10.174;2023-04-29T13:25:30;4.60;;;3.60;;
3297;SDS011;1661;53.572;10.174;2023-04-29T13:27:57;5.53;;;4.60;;
3297;SDS011;1661;53.572;10.174;2023-04-29T13:30:25;10.23;;;6.10;;
3297;SDS011;1661;53.572;10.174;2023-04-29T13:32:52;7.77;;;5.10;;
3297;SDS011;1661;53.572;10.174;2023-04-29T13:35:18;5.70;;;5.20;;
3297;SDS011;1661;53.572;10.174;2023-04-29T13:37:45;7.40;;;6.70;;
3297;SDS011;1661;53.572;10.174;2023-04-29T13:40:13;9.07;;;6.57;;
3297;SDS011;1661;53.572;10.174;2023-04-29T13:42:40;6.33;;;5.73;;
3297;SDS011;1661;53.572;10.174;2023-04-29T13:45:07;9.03;;;6.53;;
3297;SDS011;1661;53.572;10.174;2023-04-29T13:47:36;8.80;;;5.77;;
3297;SDS011;1661;53.572;10.174;2023-04-29T13:50:03;5.27;;;4.80;;
3297;SDS011;1661;53.572;10.174;2023-04-29T13:52:30;5.27;;;4.77;;
3297;SDS011;1661;53.572;10.174;2023-04-29T13:54:57;12.40;;;6.03;;
3297;SDS011;1661;53.572;10.174;2023-04-29T13:57:23;6.20;;;5.13;;
3297;SDS011;1661;53.572;10.174;2023-04-29T13:59:51;5.30;;;4.00;;
3297;SDS011;1661;53.572;10.174;2023-04-29T14:02:19;5.83;;;3.20;;
3297;SDS011;1661;53.572;10.174;2023-04-29T14:04:47;5.33;;;3.70;;
3297;SDS011;1661;53.572;10.174;2023-04-29T14:07:14;8.17;;;3.30;;
3297;SDS011;1661;53.572;10.174;2023-04-29T14:09:41;7.13;;;3.50;;
3297;SDS011;1661;53.572;10.174;2023-04-29T14:12:07;3.70;;;3.23;;
3297;SDS011;1661;53.572;10.174;2023-04-29T14:14:34;7.37;;;3.30;;
3297;SDS011;1661;53.572;10.174;2023-04-29T14:17:01;4.17;;;3.13;;
3297;SDS011;1661;53.572;10.174;2023-04-29T14:19:29;6.27;;;3.60;;
3297;SDS011;1661;53.572;10.174;2023-04-29T14:21:58;2.40;;;2.17;;
3297;SDS011;1661;53.572;10.174;2023-04-29T14:24:24;5.53;;;2.90;;
3297;SDS011;1661;53.572;10.174;2023-04-29T14:26:51;6.17;;;2.93;;
3297;SDS011;1661;53.572;10.174;2023-04-29T14:29:18;9.23;;;3.90;;
3297;SDS011;1661;53.572;10.174;2023-04-29T14:31:45;4.70;;;4.30;;
3297;SDS011;1661;53.572;10.174;2023-04-29T14:34:11;7.60;;;2.80;;
3297;SDS011;1661;53.572;10.174;2023-04-29T14:36:38;4.80;;;3.43;;
3297;SDS011;1661;53.572;10.174;2023-04-29T14:39:06;4.27;;;3.03;;
3297;SDS011;1661;53.572;10.174;2023-04-29T14:41:33;5.57;;;3.50;;
3297;SDS011;1661;53.572;10.174;2023-04-29T14:44:00;4.63;;;3.53;;
3297;SDS011;1661;53.572;10.174;2023-04-29T14:46:27;3.37;;;3.17;;
3297;SDS011;1661;53.572;10.174;2023-04-29T14:48:54;3.73;;;3.03;;
3297;SDS011;1661;53.572;10.174;2023-04-29T14:51:21;3.20;;;2.90;;
3297;SDS011;1661;53.572;10.174;2023-04-29T14:53:47;2.97;;;2.60;;
3297;SDS011;1661;53.572;10.174;2023-04-29T14:56:16;2.67;;;2.47;;
3297;SDS011;1661;53.572;10.174;2023-04-29T14:58:43;3.63;;;3.33;;
3297;SDS011;1661;53.572;10.174;2023-04-29T15:01:10;4.57;;;2.77;;